sensor_id;sensor_type;location;lat;lon;timestamp;P1;durP1;ratioP1;P2;durP2;ratioP2
67274;SDS011;55463;52.324;5.122;2022-11-20T00:02:17;17.05;;;8.07;;
67274;SDS011;55463;52.324;5.122;2022-11-20T00:04:42;15.15;;;8.60;;
67274;SDS011;55463;52.324;5.122;2022-11-20T00:07:07;19.08;;;8.63;;
67274;SDS011;55463;52.324;5.122;2022-11-20T00:09:32;15.68;;;9.18;;
67274;SDS011;55463;52.324;5.122;2022-11-20T00:11:58;13.52;;;8.30;;
67274;SDS011;55463;52.324;5.122;2022-11-20T00:14:23;14.73;;;8.98;;
67274;SDS011;55463;52.324;5.122;2022-11-20T00:16:48;15.68;;;9.40;;
67274;SDS011;55463;52.324;5.122;2022-11-20T00:19:14;13.38;;;8.57;;
67274;SDS011;55463;52.324;5.122;2022-11-20T00:21:39;14.20;;;8.43;;
67274;SDS011;55463;52.324;5.122;2022-11-20T00:24:05;12.88;;;8.40;;
67274;SDS011;55463;52.324;5.122;2022-11-20T00:26:30;16.40;;;9.10;;
67274;SDS011;55463;52.324;5.122;2022-11-20T00:28:57;17.08;;;9.90;;
67274;SDS011;55463;52.324;5.122;2022-11-20T00:31:24;18.33;;;9.73;;
67274;SDS011;55463;52.324;5.122;2022-11-20T00:33:50;17.88;;;8.57;;
67274;SDS011;55463;52.324;5.122;2022-11-20T00:36:16;13.93;;;8.55;;
67274;SDS011;55463;52.324;5.122;2022-11-20T00:38:44;15.77;;;8.57;;
67274;SDS011;55463;52.324;5.122;2022-11-20T00:41:11;16.10;;;9.25;;
67274;SDS011;55463;52.324;5.122;2022-11-20T00:43:38;17.33;;;9.57;;
67274;SDS011;55463;52.324;5.122;2022-11-20T00:46:05;14.55;;;8.25;;
67274;SDS011;55463;52.324;5.122;2022-11-20T00:48:31;15.15;;;8.70;;
67274;SDS011;55463;52.324;5.122;2022-11-20T00:50:57;15.05;;;8.25;;
67274;SDS011;55463;52.324;5.122;2022-11-20T00:53:23;14.27;;;8.00;;
67274;SDS011;55463;52.324;5.122;2022-11-20T00:55:59;12.52;;;7.93;;
67274;SDS011;55463;52.324;5.122;2022-11-20T00:58:30;18.30;;;9.05;;
67274;SDS011;55463;52.324;5.122;2022-11-20T01:03:31;18.05;;;9.05;;
67274;SDS011;55463;52.324;5.122;2022-11-20T01:06:17;15.20;;;9.55;;
67274;SDS011;55463;52.324;5.122;2022-11-20T01:08:44;15.60;;;8.45;;
67274;SDS011;55463;52.324;5.122;2022-11-20T01:11:12;13.35;;;8.18;;
67274;SDS011;55463;52.324;5.122;2022-11-20T01:13:40;13.65;;;7.55;;
67274;SDS011;55463;52.324;5.122;2022-11-20T01:16:11;21.48;;;10.75;;
67274;SDS011;55463;52.324;5.122;2022-11-20T01:18:42;22.95;;;10.73;;
67274;SDS011;55463;52.324;5.122;2022-11-20T01:21:11;21.50;;;10.48;;
67274;SDS011;55463;52.324;5.122;2022-11-20T01:26:08;22.00;;;10.38;;
67274;SDS011;55463;52.324;5.122;2022-11-20T01:28:41;19.70;;;9.48;;
67274;SDS011;55463;52.324;5.122;2022-11-20T01:31:11;22.75;;;10.25;;
67274;SDS011;55463;52.324;5.122;2022-11-20T01:33:44;28.08;;;11.93;;
67274;SDS011;55463;52.324;5.122;2022-11-20T01:36:11;32.53;;;12.32;;
67274;SDS011;55463;52.324;5.122;2022-11-20T01:38:38;21.75;;;10.07;;
67274;SDS011;55463;52.324;5.122;2022-11-20T01:41:04;21.75;;;11.05;;
67274;SDS011;55463;52.324;5.122;2022-11-20T01:43:31;21.70;;;10.73;;
67274;SDS011;55463;52.324;5.122;2022-11-20T01:46:14;23.42;;;10.05;;
67274;SDS011;55463;52.324;5.122;2022-11-20T01:48:51;21.48;;;10.13;;
67274;SDS011;55463;52.324;5.122;2022-11-20T01:51:25;22.38;;;9.30;;
67274;SDS011;55463;52.324;5.122;2022-11-20T01:53:58;18.38;;;9.35;;
67274;SDS011;55463;52.324;5.122;2022-11-20T01:56:27;19.98;;;9.60;;
67274;SDS011;55463;52.324;5.122;2022-11-20T01:58:56;17.58;;;9.63;;
67274;SDS011;55463;52.324;5.122;2022-11-20T02:01:25;21.20;;;10.30;;
67274;SDS011;55463;52.324;5.122;2022-11-20T02:03:51;19.95;;;9.73;;
67274;SDS011;55463;52.324;5.122;2022-11-20T02:06:19;15.35;;;9.13;;
67274;SDS011;55463;52.324;5.122;2022-11-20T02:08:45;17.17;;;9.05;;
67274;SDS011;55463;52.324;5.122;2022-11-20T02:11:11;14.40;;;8.18;;
67274;SDS011;55463;52.324;5.122;2022-11-20T02:13:37;15.88;;;8.07;;
67274;SDS011;55463;52.324;5.122;2022-11-20T02:16:29;14.93;;;7.50;;
67274;SDS011;55463;52.324;5.122;2022-11-20T02:18:59;17.15;;;8.07;;
67274;SDS011;55463;52.324;5.122;2022-11-20T02:24:17;13.23;;;7.63;;
67274;SDS011;55463;52.324;5.122;2022-11-20T02:26:46;13.52;;;7.30;;
67274;SDS011;55463;52.324;5.122;2022-11-20T02:29:16;13.02;;;7.72;;
67274;SDS011;55463;52.324;5.122;2022-11-20T02:31:48;17.33;;;7.68;;
67274;SDS011;55463;52.324;5.122;2022-11-20T02:34:13;14.50;;;8.45;;
67274;SDS011;55463;52.324;5.122;2022-11-20T02:36:39;11.52;;;7.75;;
67274;SDS011;55463;52.324;5.122;2022-11-20T02:39:06;13.77;;;7.55;;
67274;SDS011;55463;52.324;5.122;2022-11-20T02:41:33;16.90;;;7.63;;
67274;SDS011;55463;52.324;5.122;2022-11-20T02:44:00;14.73;;;7.60;;
67274;SDS011;55463;52.324;5.122;2022-11-20T02:46:26;12.18;;;7.10;;
67274;SDS011;55463;52.324;5.122;2022-11-20T02:48:52;11.93;;;7.43;;
67274;SDS011;55463;52.324;5.122;2022-11-20T02:51:17;11.82;;;7.43;;
67274;SDS011;55463;52.324;5.122;2022-11-20T02:53:42;13.35;;;7.07;;
67274;SDS011;55463;52.324;5.122;2022-11-20T02:56:08;16.35;;;8.40;;
67274;SDS011;55463;52.324;5.122;2022-11-20T02:58:33;14.25;;;7.50;;
67274;SDS011;55463;52.324;5.122;2022-11-20T03:00:58;13.55;;;7.30;;
67274;SDS011;55463;52.324;5.122;2022-11-20T03:03:24;16.63;;;8.40;;
67274;SDS011;55463;52.324;5.122;2022-11-20T03:05:49;16.65;;;8.98;;
67274;SDS011;55463;52.324;5.122;2022-11-20T03:08:14;13.68;;;8.35;;
67274;SDS011;55463;52.324;5.122;2022-11-20T03:10:40;16.30;;;9.10;;
67274;SDS011;55463;52.324;5.122;2022-11-20T03:13:05;14.77;;;8.35;;
67274;SDS011;55463;52.324;5.122;2022-11-20T03:15:31;15.63;;;8.38;;
67274;SDS011;55463;52.324;5.122;2022-11-20T03:17:56;18.52;;;9.05;;
67274;SDS011;55463;52.324;5.122;2022-11-20T03:20:21;13.05;;;8.15;;
67274;SDS011;55463;52.324;5.122;2022-11-20T03:22:47;14.13;;;8.07;;
67274;SDS011;55463;52.324;5.122;2022-11-20T03:25:12;17.17;;;8.63;;
67274;SDS011;55463;52.324;5.122;2022-11-20T03:27:38;14.35;;;8.50;;
67274;SDS011;55463;52.324;5.122;2022-11-20T03:30:03;15.65;;;9.52;;
67274;SDS011;55463;52.324;5.122;2022-11-20T03:32:30;17.67;;;9.55;;
67274;SDS011;55463;52.324;5.122;2022-11-20T03:34:56;14.80;;;8.93;;
67274;SDS011;55463;52.324;5.122;2022-11-20T03:37:21;15.25;;;8.77;;
67274;SDS011;55463;52.324;5.122;2022-11-20T03:39:46;15.20;;;9.13;;
67274;SDS011;55463;52.324;5.122;2022-11-20T03:42:12;14.30;;;8.73;;
67274;SDS011;55463;52.324;5.122;2022-11-20T03:44:56;16.77;;;9.00;;
67274;SDS011;55463;52.324;5.122;2022-11-20T03:47:21;18.00;;;9.43;;
67274;SDS011;55463;52.324;5.122;2022-11-20T03:49:47;15.32;;;9.40;;
67274;SDS011;55463;52.324;5.122;2022-11-20T03:52:12;13.20;;;8.27;;
67274;SDS011;55463;52.324;5.122;2022-11-20T03:54:37;13.40;;;8.25;;
67274;SDS011;55463;52.324;5.122;2022-11-20T03:57:03;15.32;;;8.32;;
67274;SDS011;55463;52.324;5.122;2022-11-20T03:59:28;18.77;;;8.80;;
67274;SDS011;55463;52.324;5.122;2022-11-20T04:01:53;17.17;;;8.95;;
67274;SDS011;55463;52.324;5.122;2022-11-20T04:04:19;15.15;;;8.52;;
67274;SDS011;55463;52.324;5.122;2022-11-20T04:06:44;14.45;;;9.07;;
67274;SDS011;55463;52.324;5.122;2022-11-20T04:09:10;20.92;;;9.77;;
67274;SDS011;55463;52.324;5.122;2022-11-20T04:11:36;15.18;;;8.80;;
67274;SDS011;55463;52.324;5.122;2022-11-20T04:14:04;14.88;;;9.23;;
67274;SDS011;55463;52.324;5.122;2022-11-20T04:16:32;17.92;;;9.68;;
67274;SDS011;55463;52.324;5.122;2022-11-20T04:18:59;15.73;;;8.90;;
67274;SDS011;55463;52.324;5.122;2022-11-20T04:21:27;16.58;;;9.20;;
67274;SDS011;55463;52.324;5.122;2022-11-20T04:23:53;15.95;;;9.90;;
67274;SDS011;55463;52.324;5.122;2022-11-20T04:26:18;20.48;;;9.43;;
67274;SDS011;55463;52.324;5.122;2022-11-20T04:28:44;14.88;;;8.30;;
67274;SDS011;55463;52.324;5.122;2022-11-20T04:31:11;14.60;;;8.80;;
67274;SDS011;55463;52.324;5.122;2022-11-20T04:33:38;15.63;;;8.25;;
67274;SDS011;55463;52.324;5.122;2022-11-20T04:36:10;17.17;;;9.13;;
67274;SDS011;55463;52.324;5.122;2022-11-20T04:38:49;14.60;;;9.50;;
67274;SDS011;55463;52.324;5.122;2022-11-20T04:41:16;19.95;;;10.00;;
67274;SDS011;55463;52.324;5.122;2022-11-20T04:43:47;18.48;;;9.93;;
67274;SDS011;55463;52.324;5.122;2022-11-20T04:46:13;18.50;;;9.80;;
67274;SDS011;55463;52.324;5.122;2022-11-20T04:48:39;17.02;;;9.32;;
67274;SDS011;55463;52.324;5.122;2022-11-20T04:51:04;16.15;;;9.43;;
67274;SDS011;55463;52.324;5.122;2022-11-20T04:53:30;16.83;;;9.00;;
67274;SDS011;55463;52.324;5.122;2022-11-20T04:56:05;16.70;;;9.45;;
67274;SDS011;55463;52.324;5.122;2022-11-20T04:58:32;19.38;;;10.43;;
67274;SDS011;55463;52.324;5.122;2022-11-20T05:01:05;19.05;;;9.95;;
67274;SDS011;55463;52.324;5.122;2022-11-20T05:03:32;18.15;;;9.18;;
67274;SDS011;55463;52.324;5.122;2022-11-20T05:06:01;16.75;;;9.60;;
67274;SDS011;55463;52.324;5.122;2022-11-20T05:08:28;17.50;;;9.73;;
67274;SDS011;55463;52.324;5.122;2022-11-20T05:10:58;16.83;;;9.88;;
67274;SDS011;55463;52.324;5.122;2022-11-20T05:13:28;14.82;;;8.73;;
67274;SDS011;55463;52.324;5.122;2022-11-20T05:15:54;17.80;;;8.85;;
67274;SDS011;55463;52.324;5.122;2022-11-20T05:18:19;22.80;;;10.85;;
67274;SDS011;55463;52.324;5.122;2022-11-20T05:20:44;16.67;;;9.63;;
67274;SDS011;55463;52.324;5.122;2022-11-20T05:23:10;16.33;;;10.23;;
67274;SDS011;55463;52.324;5.122;2022-11-20T05:25:35;16.23;;;8.70;;
67274;SDS011;55463;52.324;5.122;2022-11-20T05:28:00;18.67;;;10.07;;
67274;SDS011;55463;52.324;5.122;2022-11-20T05:30:25;17.45;;;9.52;;
67274;SDS011;55463;52.324;5.122;2022-11-20T05:32:51;15.68;;;9.85;;
67274;SDS011;55463;52.324;5.122;2022-11-20T05:35:16;15.52;;;9.43;;
67274;SDS011;55463;52.324;5.122;2022-11-20T05:37:41;18.88;;;9.70;;
67274;SDS011;55463;52.324;5.122;2022-11-20T05:40:07;16.25;;;9.90;;
67274;SDS011;55463;52.324;5.122;2022-11-20T05:42:33;18.75;;;9.88;;
67274;SDS011;55463;52.324;5.122;2022-11-20T05:44:59;16.55;;;9.82;;
67274;SDS011;55463;52.324;5.122;2022-11-20T05:47:30;17.27;;;10.40;;
67274;SDS011;55463;52.324;5.122;2022-11-20T05:49:57;15.95;;;9.77;;
67274;SDS011;55463;52.324;5.122;2022-11-20T05:52:22;19.55;;;10.27;;
67274;SDS011;55463;52.324;5.122;2022-11-20T05:54:48;17.42;;;8.90;;
67274;SDS011;55463;52.324;5.122;2022-11-20T05:57:13;18.17;;;9.63;;
67274;SDS011;55463;52.324;5.122;2022-11-20T05:59:39;17.95;;;10.10;;
67274;SDS011;55463;52.324;5.122;2022-11-20T06:02:04;16.75;;;9.98;;
67274;SDS011;55463;52.324;5.122;2022-11-20T06:04:29;16.77;;;10.52;;
67274;SDS011;55463;52.324;5.122;2022-11-20T06:06:55;19.42;;;10.80;;
67274;SDS011;55463;52.324;5.122;2022-11-20T06:09:20;19.08;;;10.82;;
67274;SDS011;55463;52.324;5.122;2022-11-20T06:11:45;22.13;;;10.57;;
67274;SDS011;55463;52.324;5.122;2022-11-20T06:14:10;18.20;;;10.25;;
67274;SDS011;55463;52.324;5.122;2022-11-20T06:16:36;17.10;;;10.15;;
67274;SDS011;55463;52.324;5.122;2022-11-20T06:19:01;19.50;;;11.05;;
67274;SDS011;55463;52.324;5.122;2022-11-20T06:21:27;14.85;;;9.90;;
67274;SDS011;55463;52.324;5.122;2022-11-20T06:23:52;17.95;;;10.60;;
67274;SDS011;55463;52.324;5.122;2022-11-20T06:26:20;15.98;;;9.27;;
67274;SDS011;55463;52.324;5.122;2022-11-20T06:28:50;18.85;;;9.20;;
67274;SDS011;55463;52.324;5.122;2022-11-20T06:31:18;23.13;;;10.63;;
67274;SDS011;55463;52.324;5.122;2022-11-20T06:33:45;20.20;;;10.43;;
67274;SDS011;55463;52.324;5.122;2022-11-20T06:36:11;17.42;;;10.05;;
67274;SDS011;55463;52.324;5.122;2022-11-20T06:38:38;17.92;;;10.18;;
67274;SDS011;55463;52.324;5.122;2022-11-20T06:41:05;17.98;;;10.48;;
67274;SDS011;55463;52.324;5.122;2022-11-20T06:43:31;20.70;;;12.77;;
67274;SDS011;55463;52.324;5.122;2022-11-20T06:45:57;19.90;;;11.27;;
67274;SDS011;55463;52.324;5.122;2022-11-20T06:48:24;20.33;;;11.52;;
67274;SDS011;55463;52.324;5.122;2022-11-20T06:50:51;16.70;;;9.90;;
67274;SDS011;55463;52.324;5.122;2022-11-20T06:53:16;19.40;;;10.88;;
67274;SDS011;55463;52.324;5.122;2022-11-20T06:55:42;21.20;;;11.00;;
67274;SDS011;55463;52.324;5.122;2022-11-20T06:58:09;22.08;;;10.68;;
67274;SDS011;55463;52.324;5.122;2022-11-20T07:00:34;19.58;;;10.65;;
67274;SDS011;55463;52.324;5.122;2022-11-20T07:03:09;17.67;;;10.73;;
67274;SDS011;55463;52.324;5.122;2022-11-20T07:05:36;18.05;;;11.00;;
67274;SDS011;55463;52.324;5.122;2022-11-20T07:08:03;18.90;;;10.93;;
67274;SDS011;55463;52.324;5.122;2022-11-20T07:10:29;20.92;;;11.43;;
67274;SDS011;55463;52.324;5.122;2022-11-20T07:12:55;18.38;;;11.13;;
67274;SDS011;55463;52.324;5.122;2022-11-20T07:15:20;17.50;;;10.73;;
67274;SDS011;55463;52.324;5.122;2022-11-20T07:17:47;17.63;;;10.13;;
67274;SDS011;55463;52.324;5.122;2022-11-20T07:20:13;21.02;;;10.68;;
67274;SDS011;55463;52.324;5.122;2022-11-20T07:22:39;20.92;;;11.32;;
67274;SDS011;55463;52.324;5.122;2022-11-20T07:25:05;24.70;;;11.98;;
67274;SDS011;55463;52.324;5.122;2022-11-20T07:27:31;20.15;;;10.63;;
67274;SDS011;55463;52.324;5.122;2022-11-20T07:29:56;19.88;;;11.48;;
67274;SDS011;55463;52.324;5.122;2022-11-20T07:32:22;22.60;;;12.02;;
67274;SDS011;55463;52.324;5.122;2022-11-20T07:34:48;20.83;;;11.25;;
67274;SDS011;55463;52.324;5.122;2022-11-20T07:37:14;20.80;;;11.40;;
67274;SDS011;55463;52.324;5.122;2022-11-20T07:39:39;23.15;;;12.05;;
67274;SDS011;55463;52.324;5.122;2022-11-20T07:42:06;19.33;;;11.75;;
67274;SDS011;55463;52.324;5.122;2022-11-20T07:44:32;20.40;;;12.23;;
67274;SDS011;55463;52.324;5.122;2022-11-20T07:46:57;18.42;;;10.95;;
67274;SDS011;55463;52.324;5.122;2022-11-20T07:49:23;21.80;;;12.38;;
67274;SDS011;55463;52.324;5.122;2022-11-20T07:51:51;20.88;;;12.05;;
67274;SDS011;55463;52.324;5.122;2022-11-20T07:54:18;21.50;;;12.45;;
67274;SDS011;55463;52.324;5.122;2022-11-20T07:56:45;22.02;;;12.20;;
67274;SDS011;55463;52.324;5.122;2022-11-20T07:59:10;24.33;;;13.13;;
67274;SDS011;55463;52.324;5.122;2022-11-20T08:01:37;23.23;;;12.77;;
67274;SDS011;55463;52.324;5.122;2022-11-20T08:04:02;21.10;;;11.73;;
67274;SDS011;55463;52.324;5.122;2022-11-20T08:06:28;21.13;;;11.88;;
67274;SDS011;55463;52.324;5.122;2022-11-20T08:08:53;21.40;;;11.88;;
67274;SDS011;55463;52.324;5.122;2022-11-20T08:11:18;20.95;;;12.63;;
67274;SDS011;55463;52.324;5.122;2022-11-20T08:14:02;22.75;;;12.90;;
67274;SDS011;55463;52.324;5.122;2022-11-20T08:16:37;19.38;;;11.77;;
67274;SDS011;55463;52.324;5.122;2022-11-20T08:19:10;22.63;;;13.50;;
67274;SDS011;55463;52.324;5.122;2022-11-20T08:21:36;19.45;;;11.73;;
67274;SDS011;55463;52.324;5.122;2022-11-20T08:24:02;21.85;;;11.93;;
67274;SDS011;55463;52.324;5.122;2022-11-20T08:26:27;26.73;;;12.60;;
67274;SDS011;55463;52.324;5.122;2022-11-20T08:28:53;23.42;;;13.23;;
67274;SDS011;55463;52.324;5.122;2022-11-20T08:31:22;21.05;;;12.27;;
67274;SDS011;55463;52.324;5.122;2022-11-20T08:33:49;23.48;;;13.13;;
67274;SDS011;55463;52.324;5.122;2022-11-20T08:36:15;27.83;;;13.88;;
67274;SDS011;55463;52.324;5.122;2022-11-20T08:38:40;22.20;;;12.85;;
67274;SDS011;55463;52.324;5.122;2022-11-20T08:41:06;23.30;;;12.85;;
67274;SDS011;55463;52.324;5.122;2022-11-20T08:43:51;24.30;;;13.95;;
67274;SDS011;55463;52.324;5.122;2022-11-20T08:46:26;27.63;;;13.73;;
67274;SDS011;55463;52.324;5.122;2022-11-20T08:49:03;22.83;;;12.13;;
67274;SDS011;55463;52.324;5.122;2022-11-20T08:51:29;23.73;;;13.10;;
67274;SDS011;55463;52.324;5.122;2022-11-20T08:53:54;24.30;;;13.35;;
67274;SDS011;55463;52.324;5.122;2022-11-20T08:56:19;21.85;;;11.82;;
67274;SDS011;55463;52.324;5.122;2022-11-20T08:58:45;26.85;;;13.95;;
67274;SDS011;55463;52.324;5.122;2022-11-20T09:01:10;21.75;;;13.52;;
67274;SDS011;55463;52.324;5.122;2022-11-20T09:03:36;22.75;;;13.13;;
67274;SDS011;55463;52.324;5.122;2022-11-20T09:06:05;23.27;;;12.48;;
67274;SDS011;55463;52.324;5.122;2022-11-20T09:08:32;21.58;;;13.50;;
67274;SDS011;55463;52.324;5.122;2022-11-20T09:10:58;23.30;;;13.50;;
67274;SDS011;55463;52.324;5.122;2022-11-20T09:13:24;19.48;;;12.18;;
67274;SDS011;55463;52.324;5.122;2022-11-20T09:15:54;22.58;;;13.82;;
67274;SDS011;55463;52.324;5.122;2022-11-20T09:18:19;24.70;;;12.93;;
67274;SDS011;55463;52.324;5.122;2022-11-20T09:20:45;24.13;;;13.15;;
67274;SDS011;55463;52.324;5.122;2022-11-20T09:23:10;19.75;;;12.05;;
67274;SDS011;55463;52.324;5.122;2022-11-20T09:25:36;21.30;;;13.07;;
67274;SDS011;55463;52.324;5.122;2022-11-20T09:28:01;23.83;;;14.32;;
67274;SDS011;55463;52.324;5.122;2022-11-20T09:30:27;21.92;;;12.93;;
67274;SDS011;55463;52.324;5.122;2022-11-20T09:32:52;22.52;;;13.48;;
67274;SDS011;55463;52.324;5.122;2022-11-20T09:35:18;21.13;;;12.85;;
67274;SDS011;55463;52.324;5.122;2022-11-20T09:37:43;23.17;;;12.38;;
67274;SDS011;55463;52.324;5.122;2022-11-20T09:40:30;23.50;;;13.30;;
67274;SDS011;55463;52.324;5.122;2022-11-20T09:51:42;24.92;;;12.35;;
67274;SDS011;55463;52.324;5.122;2022-11-20T09:56:46;24.85;;;13.60;;
67274;SDS011;55463;52.324;5.122;2022-11-20T09:59:22;22.85;;;13.25;;
67274;SDS011;55463;52.324;5.122;2022-11-20T10:01:51;23.10;;;14.35;;
67274;SDS011;55463;52.324;5.122;2022-11-20T10:04:18;22.45;;;13.32;;
67274;SDS011;55463;52.324;5.122;2022-11-20T10:07:03;22.58;;;14.25;;
67274;SDS011;55463;52.324;5.122;2022-11-20T10:09:40;24.92;;;13.90;;
67274;SDS011;55463;52.324;5.122;2022-11-20T10:15:26;20.30;;;13.10;;
67274;SDS011;55463;52.324;5.122;2022-11-20T10:29:05;24.00;;;13.77;;
67274;SDS011;55463;52.324;5.122;2022-11-20T10:31:36;27.08;;;14.25;;
67274;SDS011;55463;52.324;5.122;2022-11-20T10:34:15;25.95;;;14.02;;
67274;SDS011;55463;52.324;5.122;2022-11-20T10:36:47;21.25;;;13.68;;
67274;SDS011;55463;52.324;5.122;2022-11-20T10:39:30;21.98;;;13.68;;
67274;SDS011;55463;52.324;5.122;2022-11-20T10:42:00;23.90;;;14.55;;
67274;SDS011;55463;52.324;5.122;2022-11-20T10:44:26;26.70;;;15.38;;
67274;SDS011;55463;52.324;5.122;2022-11-20T10:47:13;30.67;;;18.83;;
67274;SDS011;55463;52.324;5.122;2022-11-20T10:49:40;36.35;;;25.23;;
67274;SDS011;55463;52.324;5.122;2022-11-20T10:55:18;28.48;;;14.65;;
67274;SDS011;55463;52.324;5.122;2022-11-20T10:57:54;23.15;;;14.30;;
67274;SDS011;55463;52.324;5.122;2022-11-20T11:00:26;27.65;;;15.52;;
67274;SDS011;55463;52.324;5.122;2022-11-20T11:02:53;26.33;;;16.08;;
67274;SDS011;55463;52.324;5.122;2022-11-20T11:07:45;25.27;;;14.10;;
67274;SDS011;55463;52.324;5.122;2022-11-20T11:10:17;25.58;;;15.48;;
67274;SDS011;55463;52.324;5.122;2022-11-20T11:12:46;25.75;;;14.60;;
67274;SDS011;55463;52.324;5.122;2022-11-20T11:15:29;26.02;;;15.00;;
67274;SDS011;55463;52.324;5.122;2022-11-20T11:18:01;27.17;;;14.80;;
67274;SDS011;55463;52.324;5.122;2022-11-20T11:20:27;32.17;;;15.82;;
67274;SDS011;55463;52.324;5.122;2022-11-20T11:22:56;29.40;;;16.50;;
67274;SDS011;55463;52.324;5.122;2022-11-20T11:25:25;29.20;;;16.40;;
67274;SDS011;55463;52.324;5.122;2022-11-20T11:27:51;28.88;;;16.60;;
67274;SDS011;55463;52.324;5.122;2022-11-20T11:30:18;33.58;;;16.25;;
67274;SDS011;55463;52.324;5.122;2022-11-20T11:32:45;33.15;;;17.60;;
67274;SDS011;55463;52.324;5.122;2022-11-20T11:35:26;29.63;;;16.27;;
67274;SDS011;55463;52.324;5.122;2022-11-20T11:40:54;33.17;;;16.73;;
67274;SDS011;55463;52.324;5.122;2022-11-20T11:43:25;27.98;;;15.15;;
67274;SDS011;55463;52.324;5.122;2022-11-20T11:46:25;29.90;;;17.85;;
67274;SDS011;55463;52.324;5.122;2022-11-20T11:51:31;37.42;;;19.02;;
67274;SDS011;55463;52.324;5.122;2022-11-20T11:54:01;32.55;;;18.60;;
67274;SDS011;55463;52.324;5.122;2022-11-20T11:56:39;37.35;;;18.42;;
67274;SDS011;55463;52.324;5.122;2022-11-20T11:59:05;42.15;;;20.10;;
67274;SDS011;55463;52.324;5.122;2022-11-20T12:01:45;36.67;;;18.80;;
67274;SDS011;55463;52.324;5.122;2022-11-20T12:04:37;39.17;;;20.08;;
67274;SDS011;55463;52.324;5.122;2022-11-20T12:07:42;35.67;;;17.83;;
67274;SDS011;55463;52.324;5.122;2022-11-20T12:10:14;33.22;;;17.23;;
67274;SDS011;55463;52.324;5.122;2022-11-20T12:12:45;38.97;;;20.27;;
67274;SDS011;55463;52.324;5.122;2022-11-20T12:15:22;39.97;;;20.52;;
67274;SDS011;55463;52.324;5.122;2022-11-20T12:17:56;40.97;;;19.50;;
67274;SDS011;55463;52.324;5.122;2022-11-20T12:20:24;41.63;;;21.63;;
67274;SDS011;55463;52.324;5.122;2022-11-20T12:23:02;43.92;;;23.33;;
67274;SDS011;55463;52.324;5.122;2022-11-20T12:25:35;46.33;;;24.70;;
67274;SDS011;55463;52.324;5.122;2022-11-20T12:28:08;38.75;;;21.02;;
67274;SDS011;55463;52.324;5.122;2022-11-20T12:30:40;43.65;;;21.13;;
67274;SDS011;55463;52.324;5.122;2022-11-20T12:36:32;41.20;;;20.55;;
67274;SDS011;55463;52.324;5.122;2022-11-20T12:42:05;36.42;;;19.02;;
67274;SDS011;55463;52.324;5.122;2022-11-20T12:50:28;49.92;;;23.45;;
67274;SDS011;55463;52.324;5.122;2022-11-20T13:00:37;39.55;;;18.88;;
67274;SDS011;55463;52.324;5.122;2022-11-20T13:03:31;42.55;;;18.75;;
67274;SDS011;55463;52.324;5.122;2022-11-20T13:06:05;38.75;;;21.08;;
67274;SDS011;55463;52.324;5.122;2022-11-20T13:08:39;38.33;;;19.20;;
67274;SDS011;55463;52.324;5.122;2022-11-20T13:11:11;36.28;;;18.75;;
67274;SDS011;55463;52.324;5.122;2022-11-20T13:14:07;39.17;;;19.00;;
67274;SDS011;55463;52.324;5.122;2022-11-20T13:16:44;39.38;;;19.95;;
67274;SDS011;55463;52.324;5.122;2022-11-20T13:19:11;44.97;;;21.48;;
67274;SDS011;55463;52.324;5.122;2022-11-20T13:21:39;33.35;;;17.92;;
67274;SDS011;55463;52.324;5.122;2022-11-20T13:26:47;35.22;;;18.02;;
67274;SDS011;55463;52.324;5.122;2022-11-20T13:29:17;36.95;;;19.73;;
67274;SDS011;55463;52.324;5.122;2022-11-20T13:31:45;36.38;;;19.35;;
67274;SDS011;55463;52.324;5.122;2022-11-20T13:34:12;37.67;;;20.85;;
67274;SDS011;55463;52.324;5.122;2022-11-20T13:36:48;36.92;;;19.42;;
67274;SDS011;55463;52.324;5.122;2022-11-20T13:41:55;33.88;;;18.80;;
67274;SDS011;55463;52.324;5.122;2022-11-20T13:47:04;40.10;;;21.60;;
67274;SDS011;55463;52.324;5.122;2022-11-20T13:49:54;41.38;;;21.27;;
67274;SDS011;55463;52.324;5.122;2022-11-20T13:52:30;39.58;;;21.42;;
67274;SDS011;55463;52.324;5.122;2022-11-20T13:55:24;35.97;;;18.17;;
67274;SDS011;55463;52.324;5.122;2022-11-20T14:01:05;35.90;;;18.83;;
67274;SDS011;55463;52.324;5.122;2022-11-20T14:03:34;41.03;;;21.33;;
67274;SDS011;55463;52.324;5.122;2022-11-20T14:06:05;36.78;;;19.27;;
67274;SDS011;55463;52.324;5.122;2022-11-20T14:08:42;43.30;;;21.25;;
67274;SDS011;55463;52.324;5.122;2022-11-20T14:11:21;40.85;;;20.60;;
67274;SDS011;55463;52.324;5.122;2022-11-20T14:16:25;38.72;;;19.98;;
67274;SDS011;55463;52.324;5.122;2022-11-20T14:18:53;40.00;;;20.65;;
67274;SDS011;55463;52.324;5.122;2022-11-20T14:21:26;39.00;;;19.35;;
67274;SDS011;55463;52.324;5.122;2022-11-20T14:24:02;34.13;;;18.25;;
67274;SDS011;55463;52.324;5.122;2022-11-20T14:26:28;35.00;;;18.50;;
67274;SDS011;55463;52.324;5.122;2022-11-20T14:28:54;37.85;;;20.85;;
67274;SDS011;55463;52.324;5.122;2022-11-20T14:31:24;37.03;;;18.38;;
67274;SDS011;55463;52.324;5.122;2022-11-20T14:33:54;39.97;;;21.63;;
67274;SDS011;55463;52.324;5.122;2022-11-20T14:36:21;32.83;;;18.55;;
67274;SDS011;55463;52.324;5.122;2022-11-20T14:38:50;35.10;;;18.60;;
67274;SDS011;55463;52.324;5.122;2022-11-20T14:41:20;41.60;;;21.15;;
67274;SDS011;55463;52.324;5.122;2022-11-20T14:43:49;46.10;;;20.65;;
67274;SDS011;55463;52.324;5.122;2022-11-20T14:46:19;42.10;;;22.38;;
67274;SDS011;55463;52.324;5.122;2022-11-20T14:48:49;39.40;;;20.98;;
67274;SDS011;55463;52.324;5.122;2022-11-20T14:51:25;42.95;;;22.67;;
67274;SDS011;55463;52.324;5.122;2022-11-20T14:53:54;42.85;;;21.77;;
67274;SDS011;55463;52.324;5.122;2022-11-20T14:56:23;49.10;;;23.02;;
67274;SDS011;55463;52.324;5.122;2022-11-20T14:58:56;44.38;;;22.38;;
67274;SDS011;55463;52.324;5.122;2022-11-20T15:01:26;42.83;;;22.35;;
67274;SDS011;55463;52.324;5.122;2022-11-20T15:04:01;49.55;;;23.73;;
67274;SDS011;55463;52.324;5.122;2022-11-20T15:06:34;43.38;;;22.30;;
67274;SDS011;55463;52.324;5.122;2022-11-20T15:09:02;47.58;;;24.95;;
67274;SDS011;55463;52.324;5.122;2022-11-20T15:11:33;50.53;;;24.95;;
67274;SDS011;55463;52.324;5.122;2022-11-20T15:14:02;54.63;;;25.13;;
67274;SDS011;55463;52.324;5.122;2022-11-20T15:16:29;54.78;;;25.52;;
67274;SDS011;55463;52.324;5.122;2022-11-20T15:18:55;60.15;;;26.80;;
67274;SDS011;55463;52.324;5.122;2022-11-20T15:21:20;60.58;;;24.83;;
67274;SDS011;55463;52.324;5.122;2022-11-20T15:23:46;48.72;;;22.80;;
67274;SDS011;55463;52.324;5.122;2022-11-20T15:26:12;46.28;;;24.05;;
67274;SDS011;55463;52.324;5.122;2022-11-20T15:28:40;55.15;;;24.55;;
67274;SDS011;55463;52.324;5.122;2022-11-20T15:31:11;58.90;;;25.23;;
67274;SDS011;55463;52.324;5.122;2022-11-20T15:33:37;47.55;;;22.20;;
67274;SDS011;55463;52.324;5.122;2022-11-20T15:36:03;52.03;;;23.70;;
67274;SDS011;55463;52.324;5.122;2022-11-20T15:38:28;57.50;;;23.63;;
67274;SDS011;55463;52.324;5.122;2022-11-20T15:40:54;49.20;;;22.55;;
67274;SDS011;55463;52.324;5.122;2022-11-20T15:43:19;56.15;;;24.33;;
67274;SDS011;55463;52.324;5.122;2022-11-20T15:45:53;55.53;;;25.33;;
67274;SDS011;55463;52.324;5.122;2022-11-20T15:48:22;57.40;;;23.73;;
67274;SDS011;55463;52.324;5.122;2022-11-20T15:51:11;45.63;;;21.67;;
67274;SDS011;55463;52.324;5.122;2022-11-20T15:53:46;46.03;;;21.60;;
67274;SDS011;55463;52.324;5.122;2022-11-20T15:56:12;44.95;;;23.52;;